createdAt,value
2019-05-25T00:00:05.310Z,14.51
2019-05-25T00:02:38.113Z,14.35
2019-05-25T00:05:15.650Z,14.28
2019-05-25T00:07:47.779Z,14.33
2019-05-25T00:10:37.100Z,14.35
2019-05-25T00:13:11.802Z,14.30
2019-05-25T00:15:47.598Z,14.25
2019-05-25T00:18:21.149Z,14.18
2019-05-25T00:20:58.155Z,14.17
2019-05-25T00:23:33.288Z,14.11
2019-05-25T00:26:19.440Z,14.10
2019-05-25T00:28:53.278Z,14.05
2019-05-25T00:31:25.097Z,14.00
2019-05-25T00:33:57.005Z,13.94
2019-05-25T00:36:28.746Z,13.95
2019-05-25T00:39:00.454Z,13.92
2019-05-25T00:41:33.461Z,13.97
2019-05-25T00:44:06.202Z,13.91
2019-05-25T00:46:39.615Z,13.94
2019-05-25T00:49:11.451Z,13.95
2019-05-25T00:51:43.619Z,13.96
2019-05-25T00:54:27.571Z,13.94
2019-05-25T00:56:50.002Z,13.89
2019-05-25T00:59:22.650Z,13.91
2019-05-25T01:01:54.343Z,13.85
2019-05-25T01:04:26.244Z,13.81
2019-05-25T01:06:57.977Z,13.80
2019-05-25T01:09:32.125Z,13.77
2019-05-25T01:12:04.094Z,13.77
2019-05-25T01:14:35.762Z,13.75
2019-05-25T01:17:09.278Z,13.75
2019-05-25T01:19:54.105Z,13.72
2019-05-25T01:22:26.505Z,13.70
2019-05-25T01:25:06.247Z,13.72
2019-05-25T01:27:37.966Z,13.62
2019-05-25T01:30:11.941Z,13.63
2019-05-25T01:32:45.807Z,13.62
2019-05-25T01:35:17.915Z,13.59
2019-05-25T01:37:50.340Z,13.64
2019-05-25T01:40:22.424Z,13.68
2019-05-25T01:42:55.817Z,13.60
2019-05-25T01:45:31.925Z,13.60
2019-05-25T01:48:07.612Z,13.59
2019-05-25T01:50:39.567Z,13.55
2019-05-25T01:53:12.501Z,13.57
2019-05-25T01:55:44.416Z,13.53
2019-05-25T01:58:17.674Z,13.46
2019-05-25T02:00:49.646Z,13.47
2019-05-25T02:03:21.513Z,13.46
2019-05-25T02:05:57.407Z,13.46
2019-05-25T02:08:38.878Z,13.42
2019-05-25T02:11:10.540Z,13.41
2019-05-25T02:13:42.499Z,13.39
2019-05-25T02:16:15.330Z,13.37
2019-05-25T02:18:47.559Z,13.31
2019-05-25T02:21:19.232Z,13.31
2019-05-25T02:23:51.401Z,13.28
2019-05-25T02:26:38.593Z,13.29
2019-05-25T02:29:14.176Z,13.30
2019-05-25T02:31:46.116Z,13.21
2019-05-25T02:34:17.817Z,13.11
2019-05-25T02:36:49.718Z,13.14
2019-05-25T02:39:28.586Z,13.16
2019-05-25T02:42:00.909Z,13.17
2019-05-25T02:44:33.198Z,13.15
2019-05-25T02:47:05.309Z,13.09
2019-05-25T02:50:06.640Z,13.06
2019-05-25T02:52:38.760Z,13.09
2019-05-25T02:55:34.263Z,13.11
2019-05-25T02:58:22.859Z,13.09
2019-05-25T03:00:55.582Z,13.03
2019-05-25T03:03:27.582Z,12.98
2019-05-25T03:06:01.344Z,13.03
2019-05-25T03:08:33.589Z,12.98
2019-05-25T03:11:16.785Z,12.96
2019-05-25T03:13:50.605Z,12.87
2019-05-25T03:16:23.265Z,12.88
2019-05-25T03:18:55.737Z,12.93
2019-05-25T03:21:28.320Z,12.95
2019-05-25T03:24:00.868Z,13.00
2019-05-25T03:26:32.573Z,13.06
2019-05-25T03:29:04.424Z,13.06
2019-05-25T03:31:39.985Z,13.09
2019-05-25T03:34:16.525Z,13.08
2019-05-25T03:36:55.196Z,13.12
2019-05-25T03:39:28.547Z,13.18
2019-05-25T03:42:00.064Z,13.14
2019-05-25T03:44:31.813Z,13.15
2019-05-25T03:47:03.784Z,13.21
2019-05-25T03:49:35.813Z,13.24
2019-05-25T03:52:08.251Z,13.27
2019-05-25T03:54:41.125Z,13.26
2019-05-25T03:57:13.077Z,13.25
2019-05-25T03:59:44.910Z,13.26
2019-05-25T04:02:16.643Z,13.32
2019-05-25T04:04:48.465Z,13.31
2019-05-25T04:07:20.264Z,13.34
2019-05-25T04:09:52.285Z,13.34
2019-05-25T04:12:26.350Z,13.35
2019-05-25T04:15:00.399Z,13.31
2019-05-25T04:17:32.615Z,13.38
2019-05-25T04:20:05.280Z,13.40
2019-05-25T04:22:37.983Z,13.45
2019-05-25T04:25:09.918Z,13.48
2019-05-25T04:27:41.581Z,13.56
2019-05-25T04:30:31.947Z,13.56
2019-05-25T04:33:15.645Z,13.58
2019-05-25T04:35:47.648Z,13.62
2019-05-25T04:38:23.832Z,13.65
2019-05-25T04:40:57.906Z,13.63
2019-05-25T04:43:29.694Z,13.68
2019-05-25T04:46:02.074Z,13.77
2019-05-25T04:48:35.922Z,13.82
2019-05-25T04:51:09.041Z,13.91
2019-05-25T04:53:41.221Z,13.93
2019-05-25T04:56:12.963Z,14.05
2019-05-25T04:58:44.880Z,14.04
2019-05-25T05:01:22.225Z,14.03
2019-05-25T05:03:52.455Z,14.00
2019-05-25T05:06:27.929Z,14.00
2019-05-25T05:09:00.423Z,14.01
2019-05-25T05:11:34.130Z,14.03
2019-05-25T05:14:06.214Z,14.09
2019-05-25T05:16:37.928Z,14.13
2019-05-25T05:19:09.826Z,14.15
2019-05-25T05:21:42.999Z,14.16
2019-05-25T05:24:14.682Z,14.25
2019-05-25T05:26:55.744Z,14.32
2019-05-25T05:29:23.240Z,14.39
2019-05-25T05:31:59.903Z,14.47
2019-05-25T05:34:31.657Z,14.56
2019-05-25T05:37:06.165Z,14.61
2019-05-25T05:39:38.427Z,14.62
2019-05-25T05:42:16.091Z,14.70
2019-05-25T05:44:50.241Z,14.75
2019-05-25T05:47:23.944Z,14.85
2019-05-25T05:49:56.874Z,14.85
2019-05-25T05:52:31.308Z,14.95
2019-05-25T05:55:05.083Z,15.00
2019-05-25T05:57:37.846Z,15.05
2019-05-25T06:00:11.536Z,15.11
2019-05-25T06:02:43.259Z,15.15
2019-05-25T06:05:15.305Z,15.25
2019-05-25T06:07:47.992Z,15.25
2019-05-25T06:10:20.455Z,15.37
2019-05-25T06:12:52.370Z,15.45
2019-05-25T06:15:25.123Z,15.56
2019-05-25T06:17:56.844Z,15.71
2019-05-25T06:20:28.680Z,15.85
2019-05-25T06:23:00.589Z,15.97
2019-05-25T06:25:34.633Z,16.09
2019-05-25T06:28:08.568Z,16.11
2019-05-25T06:30:42.496Z,16.18
2019-05-25T06:33:16.823Z,16.22
2019-05-25T06:35:50.138Z,16.28
2019-05-25T06:38:23.650Z,16.44
2019-05-25T06:41:00.991Z,16.62
2019-05-25T06:43:36.219Z,16.71
2019-05-25T06:46:11.471Z,16.85
2019-05-25T06:48:47.963Z,16.99
2019-05-25T06:51:23.202Z,16.98
2019-05-25T06:53:56.365Z,17.06
2019-05-25T06:56:32.548Z,17.12
2019-05-25T06:59:05.097Z,17.14
2019-05-25T07:01:38.616Z,17.19
2019-05-25T07:04:14.992Z,17.25
2019-05-25T07:06:48.373Z,17.26
2019-05-25T07:09:21.001Z,17.29
2019-05-25T07:11:56.074Z,17.35
2019-05-25T07:14:31.655Z,17.51
2019-05-25T07:17:12.405Z,17.71
2019-05-25T07:19:48.242Z,17.82
2019-05-25T07:22:20.565Z,17.96
2019-05-25T07:24:52.351Z,17.95
2019-05-25T07:27:27.378Z,18.01
2019-05-25T07:30:01.536Z,18.15
2019-05-25T07:32:37.802Z,18.34
2019-05-25T07:35:10.978Z,18.42
2019-05-25T07:37:48.929Z,18.46
2019-05-25T07:40:21.467Z,18.48
2019-05-25T07:42:55.406Z,18.65
2019-05-25T07:45:30.291Z,18.72
2019-05-25T07:48:42.910Z,18.91
2019-05-25T07:51:17.932Z,19.07
2019-05-25T07:53:50.109Z,19.10
2019-05-25T07:56:23.277Z,19.02
2019-05-25T07:58:57.525Z,18.90
2019-05-25T08:01:32.139Z,18.96
2019-05-25T08:04:05.964Z,18.92
2019-05-25T08:06:48.668Z,19.00
2019-05-25T08:09:56.241Z,19.04
2019-05-25T08:12:49.294Z,19.04
2019-05-25T08:15:26.621Z,19.42
2019-05-25T08:18:05.495Z,19.81
2019-05-25T08:20:59.192Z,20.29
2019-05-25T08:23:55.007Z,20.77
2019-05-25T08:26:27.195Z,21.08
2019-05-25T08:28:59.086Z,21.25
2019-05-25T08:31:30.816Z,21.34
2019-05-25T08:34:04.650Z,21.67
2019-05-25T08:36:40.609Z,22.06
2019-05-25T08:39:25.566Z,22.19
2019-05-25T08:42:05.453Z,22.34
2019-05-25T08:44:38.706Z,22.51
2019-05-25T08:47:10.668Z,22.32
2019-05-25T08:49:42.830Z,22.09
2019-05-25T08:52:18.437Z,21.88
2019-05-25T08:54:53.399Z,22.01
2019-05-25T08:57:28.192Z,22.23
2019-05-25T09:00:26.805Z,22.11
2019-05-25T09:02:58.471Z,22.13
2019-05-25T09:05:31.345Z,22.62
2019-05-25T09:08:04.973Z,22.81
2019-05-25T09:10:59.257Z,22.68
2019-05-25T09:13:32.168Z,22.16
2019-05-25T09:16:05.617Z,21.98
2019-05-25T09:18:37.981Z,22.09
2019-05-25T09:21:10.815Z,21.99
2019-05-25T09:23:42.907Z,21.84
2019-05-25T09:26:15.567Z,22.08
2019-05-25T09:29:03.191Z,22.21
2019-05-25T09:34:19.642Z,22.29
2019-05-25T09:36:52.008Z,22.14
2019-05-25T09:39:25.443Z,21.83
2019-05-25T09:41:57.099Z,21.63
2019-05-25T09:44:29.271Z,21.42
2019-05-25T09:47:00.993Z,21.37
2019-05-25T09:49:32.660Z,21.18
2019-05-25T09:52:08.343Z,20.96
2019-05-25T09:54:41.954Z,20.71
2019-05-25T09:57:15.735Z,20.67
2019-05-25T09:59:53.279Z,20.58
2019-05-25T10:02:25.067Z,20.45
2019-05-25T10:04:59.479Z,20.31
2019-05-25T10:07:32.738Z,20.46
2019-05-25T10:10:04.716Z,20.52
2019-05-25T10:12:36.539Z,20.66
2019-05-25T10:15:13.428Z,20.76
2019-05-25T10:17:46.707Z,20.87
2019-05-25T10:20:22.682Z,21.13
2019-05-25T10:22:55.607Z,21.32
2019-05-25T10:25:27.899Z,21.25
2019-05-25T10:28:01.161Z,20.80
2019-05-25T10:30:33.559Z,20.34
2019-05-25T10:33:06.241Z,19.94
2019-05-25T10:35:40.208Z,19.52
2019-05-25T10:38:15.623Z,19.45
2019-05-25T10:40:52.213Z,19.35
2019-05-25T10:43:40.291Z,19.26
2019-05-25T10:46:17.300Z,19.31
2019-05-25T10:48:53.445Z,19.13
2019-05-25T10:51:27.349Z,19.21
2019-05-25T10:54:07.895Z,19.06
2019-05-25T10:56:43.279Z,19.13
2019-05-25T11:02:13.020Z,19.19
2019-05-25T11:04:55.180Z,19.15
2019-05-25T11:07:37.534Z,19.08
2019-05-25T11:10:21.070Z,19.03
2019-05-25T11:12:56.036Z,19.15
2019-05-25T11:15:38.332Z,19.14
2019-05-25T11:18:17.263Z,19.13
2019-05-25T11:20:50.632Z,19.07
2019-05-25T11:23:37.147Z,19.11
2019-05-25T11:26:19.299Z,19.18
2019-05-25T11:28:57.107Z,19.09
2019-05-25T11:31:29.221Z,19.10
2019-05-25T11:34:06.574Z,19.03
2019-05-25T11:36:42.659Z,18.99
2019-05-25T11:39:25.406Z,18.94
2019-05-25T11:42:04.233Z,19.01
2019-05-25T11:44:36.661Z,18.83
2019-05-25T11:47:16.180Z,18.76
2019-05-25T11:49:52.727Z,18.68
2019-05-25T11:52:34.199Z,18.69
2019-05-25T11:55:27.948Z,18.72
2019-05-25T11:58:10.326Z,18.70
2019-05-25T12:01:03.483Z,18.65
2019-05-25T12:03:36.536Z,18.83
2019-05-25T12:06:12.940Z,18.85
2019-05-25T12:08:46.559Z,18.87
2019-05-25T12:11:24.436Z,18.85
2019-05-25T12:14:10.726Z,19.03
2019-05-25T12:16:49.278Z,19.15
2019-05-25T12:19:25.188Z,19.58
2019-05-25T12:22:05.208Z,19.80
2019-05-25T12:25:08.237Z,19.88
2019-05-25T12:27:43.158Z,20.57
2019-05-25T12:30:41.141Z,21.13
2019-05-25T12:33:28.186Z,21.51
2019-05-25T12:36:04.290Z,21.89
2019-05-25T12:38:53.388Z,22.25
2019-05-25T12:41:29.939Z,22.31
2019-05-25T12:44:13.059Z,22.02
2019-05-25T12:46:59.432Z,21.62
2019-05-25T12:49:49.995Z,21.36
2019-05-25T12:52:19.576Z,21.13
2019-05-25T12:54:52.882Z,21.02
2019-05-25T12:57:29.561Z,20.95
2019-05-25T13:00:19.118Z,20.65
2019-05-25T13:03:00.213Z,20.66
2019-05-25T13:05:42.711Z,20.66
2019-05-25T13:08:18.597Z,20.67
2019-05-25T13:10:56.749Z,20.68
2019-05-25T13:13:35.047Z,20.71
2019-05-25T13:16:12.569Z,20.71
2019-05-25T13:18:44.454Z,20.62
2019-05-25T13:21:31.777Z,20.67
2019-05-25T13:24:09.911Z,20.77
2019-05-25T13:26:55.302Z,21.02
2019-05-25T13:29:51.016Z,21.44
2019-05-25T13:32:14.432Z,21.69
2019-05-25T13:34:55.191Z,21.86
2019-05-25T13:37:35.358Z,22.04
2019-05-25T13:40:15.787Z,22.09
2019-05-25T13:43:06.637Z,22.00
2019-05-25T13:45:46.493Z,21.99
2019-05-25T13:48:22.354Z,22.12
2019-05-25T13:51:06.183Z,22.31
2019-05-25T13:53:51.665Z,22.31
2019-05-25T13:56:30.321Z,22.33
2019-05-25T13:59:04.785Z,22.32
2019-05-25T14:01:39.233Z,22.29
2019-05-25T14:04:16.108Z,22.16
2019-05-25T14:07:01.511Z,21.98
2019-05-25T14:09:40.462Z,21.88
2019-05-25T14:12:19.105Z,21.77
2019-05-25T14:17:42.272Z,21.41
2019-05-25T14:20:26.705Z,21.28
2019-05-25T14:23:02.455Z,21.19
2019-05-25T14:25:58.632Z,21.10
2019-05-25T14:28:33.276Z,20.94
2019-05-25T14:31:19.402Z,20.71
2019-05-25T14:33:59.459Z,20.71
2019-05-25T14:36:34.098Z,20.65
2019-05-25T14:39:09.295Z,20.63
2019-05-25T14:41:50.100Z,20.60
2019-05-25T14:44:27.605Z,20.35
2019-05-25T14:47:07.419Z,20.37
2019-05-25T14:49:38.031Z,20.27
2019-05-25T14:52:27.124Z,20.24
2019-05-25T14:55:11.396Z,20.11
2019-05-25T14:57:50.679Z,20.09
2019-05-25T15:00:30.537Z,19.98
2019-05-25T15:03:06.545Z,19.87
2019-05-25T15:05:44.141Z,19.81
2019-05-25T15:08:38.427Z,19.75
2019-05-25T15:11:27.263Z,19.54
2019-05-25T15:14:06.821Z,19.52
2019-05-25T15:16:45.662Z,19.48
2019-05-25T15:19:23.940Z,19.51
2019-05-25T15:21:59.129Z,19.46
2019-05-25T15:24:40.064Z,19.45
2019-05-25T15:27:29.360Z,19.33
2019-05-25T15:30:07.959Z,19.38
2019-05-25T15:32:45.631Z,19.17
2019-05-25T15:35:28.919Z,19.15
2019-05-25T15:38:25.944Z,19.09
2019-05-25T15:41:04.312Z,19.01
2019-05-25T15:43:40.153Z,18.99
2019-05-25T15:46:13.224Z,18.91
2019-05-25T15:49:00.243Z,18.88
2019-05-25T15:51:35.794Z,18.83
2019-05-25T15:54:11.932Z,18.81
2019-05-25T15:57:08.146Z,18.77
2019-05-25T16:02:51.551Z,18.78
2019-05-25T16:05:33.955Z,18.79
2019-05-25T16:08:12.104Z,18.74
2019-05-25T16:10:44.829Z,18.66
2019-05-25T16:13:30.486Z,18.57
2019-05-25T16:16:06.078Z,18.56
2019-05-25T16:18:41.618Z,18.45
2019-05-25T16:21:25.289Z,18.41
2019-05-25T16:24:17.377Z,18.31
2019-05-25T16:26:50.291Z,18.28
2019-05-25T16:29:26.640Z,18.29
2019-05-25T16:31:59.455Z,18.42
2019-05-25T16:34:42.988Z,18.29
2019-05-25T16:37:20.669Z,18.23
2019-05-25T16:39:53.891Z,18.31
2019-05-25T16:42:26.164Z,18.26
2019-05-25T16:45:05.390Z,18.18
2019-05-25T16:47:44.333Z,18.22
2019-05-25T16:50:22.010Z,18.20
2019-05-25T16:53:03.317Z,18.13
2019-05-25T16:55:54.536Z,18.15
2019-05-25T16:58:35.562Z,18.12
2019-05-25T17:01:10.375Z,18.07
2019-05-25T17:03:49.222Z,18.05
2019-05-25T17:06:27.191Z,18.01
2019-05-25T17:09:10.154Z,18.05
2019-05-25T17:11:45.634Z,18.11
2019-05-25T17:14:28.111Z,18.14
2019-05-25T17:17:07.155Z,18.17
2019-05-25T17:19:44.048Z,18.21
2019-05-25T17:22:23.285Z,18.18
2019-05-25T17:25:18.515Z,18.14
2019-05-25T17:27:54.230Z,18.10
2019-05-25T17:30:45.777Z,17.96
2019-05-25T17:33:45.235Z,17.96
2019-05-25T17:36:19.748Z,17.84
2019-05-25T17:38:56.433Z,17.75
2019-05-25T17:41:32.459Z,17.65
2019-05-25T17:44:04.151Z,17.67
2019-05-25T17:47:00.690Z,17.69
2019-05-25T17:49:36.522Z,17.69
2019-05-25T17:52:13.642Z,17.64
2019-05-25T17:54:52.680Z,17.57
2019-05-25T17:57:30.096Z,17.61
2019-05-25T18:00:03.811Z,17.54
2019-05-25T18:02:42.273Z,17.54
2019-05-25T18:05:21.136Z,17.46
2019-05-25T18:08:00.135Z,17.41
2019-05-25T18:10:52.956Z,17.43
2019-05-25T18:13:28.701Z,17.43
2019-05-25T18:16:03.063Z,17.44
2019-05-25T18:18:47.708Z,17.45
2019-05-25T18:21:24.742Z,17.36
2019-05-25T18:24:25.440Z,17.36
2019-05-25T18:26:58.056Z,17.33
2019-05-25T18:29:42.092Z,17.28
2019-05-25T18:32:22.199Z,17.35
2019-05-25T18:34:57.485Z,17.23
2019-05-25T18:37:31.929Z,17.10
2019-05-25T18:40:06.870Z,17.06
2019-05-25T18:42:42.905Z,17.02
2019-05-25T18:45:19.140Z,17.08
2019-05-25T18:47:54.398Z,16.99
2019-05-25T18:50:28.802Z,17.01
2019-05-25T18:53:05.634Z,17.03
2019-05-25T18:55:42.694Z,17.08
2019-05-25T18:58:20.049Z,17.12
2019-05-25T19:01:17.899Z,17.03
2019-05-25T19:03:48.573Z,17.01
2019-05-25T19:06:29.574Z,17.08
2019-05-25T19:09:04.201Z,17.09
2019-05-25T19:11:41.078Z,17.09
2019-05-25T19:14:19.822Z,17.06
2019-05-25T19:16:54.096Z,17.09
2019-05-25T19:19:31.753Z,17.08
2019-05-25T19:22:09.651Z,17.08
2019-05-25T19:24:45.949Z,17.06
2019-05-25T19:27:21.963Z,17.08
2019-05-25T19:30:03.294Z,17.11
2019-05-25T19:32:41.557Z,17.09
2019-05-25T19:35:20.331Z,17.07
2019-05-25T19:38:06.322Z,17.09
2019-05-25T19:40:43.163Z,17.06
2019-05-25T19:43:24.634Z,17.06
2019-05-25T19:46:02.740Z,17.05
2019-05-25T19:48:45.537Z,17.03
2019-05-25T19:51:40.675Z,17.03
2019-05-25T19:54:22.792Z,17.04
2019-05-25T19:57:02.649Z,17.01
2019-05-25T19:59:44.953Z,16.98
2019-05-25T20:02:32.762Z,16.91
2019-05-25T20:05:24.201Z,16.86
2019-05-25T20:07:58.395Z,16.81
2019-05-25T20:10:35.057Z,16.84
2019-05-25T20:13:24.739Z,16.80
2019-05-25T20:16:24.742Z,16.76
2019-05-25T20:19:00.462Z,16.75
2019-05-25T20:21:35.188Z,16.69
2019-05-25T20:24:07.889Z,16.67
2019-05-25T20:26:46.511Z,16.73
2019-05-25T20:29:24.626Z,16.73
2019-05-25T20:31:59.325Z,16.67
2019-05-25T20:34:40.768Z,16.68
2019-05-25T20:37:17.036Z,16.68
2019-05-25T20:39:55.357Z,16.70
2019-05-25T20:42:36.799Z,16.67
2019-05-25T20:45:18.869Z,16.62
2019-05-25T20:48:05.056Z,16.66
2019-05-25T20:50:41.352Z,16.69
2019-05-25T20:53:15.816Z,16.62
2019-05-25T20:56:08.498Z,16.64
2019-05-25T20:58:41.581Z,16.61
2019-05-25T21:01:24.581Z,16.64
2019-05-25T21:04:06.261Z,16.66
2019-05-25T21:06:39.909Z,16.60
2019-05-25T21:09:19.438Z,16.57
2019-05-25T21:12:00.196Z,16.56
2019-05-25T21:14:48.134Z,16.56
2019-05-25T21:17:26.366Z,16.54
2019-05-25T21:20:04.131Z,16.50
2019-05-25T21:22:51.797Z,16.54
2019-05-25T21:25:39.152Z,16.42
2019-05-25T21:28:15.242Z,16.37
2019-05-25T21:30:53.720Z,16.38
2019-05-25T21:36:28.709Z,16.31
2019-05-25T21:39:09.639Z,16.35
2019-05-25T21:41:49.203Z,16.36
2019-05-25T21:47:45.514Z,16.35
2019-05-25T21:50:22.930Z,16.35
2019-05-25T21:53:06.037Z,16.35
2019-05-25T21:55:39.974Z,16.35
2019-05-25T21:58:24.132Z,16.29
2019-05-25T22:01:08.071Z,16.28
2019-05-25T22:03:51.773Z,16.24
2019-05-25T22:06:42.262Z,16.26
2019-05-25T22:09:32.980Z,16.31
2019-05-25T22:12:16.720Z,16.31
2019-05-25T22:15:06.348Z,16.33
2019-05-25T22:17:45.390Z,16.30
2019-05-25T22:20:45.908Z,16.33
2019-05-25T22:23:23.246Z,16.33
2019-05-25T22:26:04.460Z,16.38
2019-05-25T22:28:45.108Z,16.39
2019-05-25T22:31:22.872Z,16.38
2019-05-25T22:33:59.505Z,16.38
2019-05-25T22:36:40.224Z,16.39
2019-05-25T22:39:28.473Z,16.37
2019-05-25T22:42:38.753Z,16.31
2019-05-25T22:45:15.598Z,16.28
2019-05-25T22:47:56.965Z,16.25
2019-05-25T22:51:13.080Z,16.29
2019-05-25T22:53:55.057Z,16.28
2019-05-25T22:56:34.157Z,16.23
2019-05-25T22:59:26.308Z,16.23
2019-05-25T23:02:04.932Z,16.17
2019-05-25T23:04:52.734Z,16.17
2019-05-25T23:10:37.176Z,16.17
2019-05-25T23:13:27.211Z,16.10
2019-05-25T23:16:05.236Z,16.05
2019-05-25T23:19:06.543Z,16.02
2019-05-25T23:22:00.117Z,15.96
2019-05-25T23:24:47.747Z,15.90
2019-05-25T23:34:29.715Z,15.81
2019-05-25T23:41:11.199Z,15.81
2019-05-25T23:44:50.685Z,15.81
2019-05-25T23:48:00.216Z,15.85
2019-05-25T23:50:33.439Z,15.80
